sensor_id;sensor_type;location;lat;lon;timestamp;temperature;humidity
61000;SHT31;46879;45.658;11.814;2024-03-08T00:00:44;18.23;71.83
61000;SHT31;46879;45.658;11.814;2024-03-08T00:05:44;18.23;71.83
61000;SHT31;46879;45.658;11.814;2024-03-08T00:10:45;18.25;71.79
61000;SHT31;46879;45.658;11.814;2024-03-08T00:15:45;18.23;71.76
61000;SHT31;46879;45.658;11.814;2024-03-08T00:20:47;18.21;71.73
61000;SHT31;46879;45.658;11.814;2024-03-08T00:25:47;18.22;71.87
61000;SHT31;46879;45.658;11.814;2024-03-08T00:30:48;18.23;71.76
61000;SHT31;46879;45.658;11.814;2024-03-08T00:35:49;18.19;71.76
61000;SHT31;46879;45.658;11.814;2024-03-08T00:40:49;18.17;71.81
61000;SHT31;46879;45.658;11.814;2024-03-08T00:45:50;18.21;71.78
61000;SHT31;46879;45.658;11.814;2024-03-08T00:50:50;18.21;71.88
61000;SHT31;46879;45.658;11.814;2024-03-08T00:55:51;18.21;71.71
61000;SHT31;46879;45.658;11.814;2024-03-08T01:00:52;18.17;71.77
61000;SHT31;46879;45.658;11.814;2024-03-08T01:05:52;18.19;71.76
61000;SHT31;46879;45.658;11.814;2024-03-08T01:10:53;18.16;71.70
61000;SHT31;46879;45.658;11.814;2024-03-08T01:15:54;18.19;71.74
61000;SHT31;46879;45.658;11.814;2024-03-08T01:20:55;18.19;71.64
61000;SHT31;46879;45.658;11.814;2024-03-08T01:25:55;18.17;71.61
61000;SHT31;46879;45.658;11.814;2024-03-08T01:30:59;18.19;71.58
61000;SHT31;46879;45.658;11.814;2024-03-08T01:35:59;18.16;71.51
61000;SHT31;46879;45.658;11.814;2024-03-08T01:41:00;18.17;71.51
61000;SHT31;46879;45.658;11.814;2024-03-08T01:46:01;18.15;71.46
61000;SHT31;46879;45.658;11.814;2024-03-08T01:51:02;18.15;71.44
61000;SHT31;46879;45.658;11.814;2024-03-08T01:56:03;18.15;71.31
61000;SHT31;46879;45.658;11.814;2024-03-08T02:01:06;18.17;71.34
61000;SHT31;46879;45.658;11.814;2024-03-08T02:06:07;18.10;71.65
61000;SHT31;46879;45.658;11.814;2024-03-08T02:11:10;18.12;71.60
61000;SHT31;46879;45.658;11.814;2024-03-08T02:16:11;18.12;71.51
61000;SHT31;46879;45.658;11.814;2024-03-08T02:21:12;18.13;71.53
61000;SHT31;46879;45.658;11.814;2024-03-08T02:26:13;18.13;71.44
61000;SHT31;46879;45.658;11.814;2024-03-08T02:31:14;18.13;71.41
61000;SHT31;46879;45.658;11.814;2024-03-08T02:36:15;18.13;71.41
61000;SHT31;46879;45.658;11.814;2024-03-08T02:41:16;18.13;71.46
61000;SHT31;46879;45.658;11.814;2024-03-08T02:46:17;18.13;71.58
61000;SHT31;46879;45.658;11.814;2024-03-08T02:51:17;18.13;71.61
61000;SHT31;46879;45.658;11.814;2024-03-08T02:56:18;18.10;71.70
61000;SHT31;46879;45.658;11.814;2024-03-08T03:01:19;18.10;71.81
61000;SHT31;46879;45.658;11.814;2024-03-08T03:06:20;18.10;71.83
61000;SHT31;46879;45.658;11.814;2024-03-08T03:11:21;18.08;71.87
61000;SHT31;46879;45.658;11.814;2024-03-08T03:16:22;18.10;71.76
61000;SHT31;46879;45.658;11.814;2024-03-08T03:21:23;18.09;71.82
61000;SHT31;46879;45.658;11.814;2024-03-08T03:26:23;18.06;71.97
61000;SHT31;46879;45.658;11.814;2024-03-08T03:31:24;18.09;71.90
61000;SHT31;46879;45.658;11.814;2024-03-08T03:36:26;18.08;71.94
61000;SHT31;46879;45.658;11.814;2024-03-08T03:41:28;18.09;71.89
61000;SHT31;46879;45.658;11.814;2024-03-08T03:46:28;18.09;71.84
61000;SHT31;46879;45.658;11.814;2024-03-08T03:51:29;18.08;71.81
61000;SHT31;46879;45.658;11.814;2024-03-08T03:56:30;18.09;71.80
61000;SHT31;46879;45.658;11.814;2024-03-08T04:01:31;18.08;71.77
61000;SHT31;46879;45.658;11.814;2024-03-08T04:06:31;18.08;71.62
61000;SHT31;46879;45.658;11.814;2024-03-08T04:11:32;18.09;71.56
61000;SHT31;46879;45.658;11.814;2024-03-08T04:16:32;18.06;71.46
61000;SHT31;46879;45.658;11.814;2024-03-08T04:21:33;18.08;71.39
61000;SHT31;46879;45.658;11.814;2024-03-08T04:26:33;18.06;71.35
61000;SHT31;46879;45.658;11.814;2024-03-08T04:31:34;18.06;71.42
61000;SHT31;46879;45.658;11.814;2024-03-08T04:36:35;18.06;71.31
61000;SHT31;46879;45.658;11.814;2024-03-08T04:41:35;18.06;71.22
61000;SHT31;46879;45.658;11.814;2024-03-08T04:46:37;18.04;71.10
61000;SHT31;46879;45.658;11.814;2024-03-08T04:51:38;18.04;71.10
61000;SHT31;46879;45.658;11.814;2024-03-08T04:56:42;18.04;71.12
61000;SHT31;46879;45.658;11.814;2024-03-08T05:01:43;18.04;71.09
61000;SHT31;46879;45.658;11.814;2024-03-08T05:06:44;18.05;71.11
61000;SHT31;46879;45.658;11.814;2024-03-08T05:11:46;18.05;71.16
61000;SHT31;46879;45.658;11.814;2024-03-08T05:16:47;18.04;71.18
61000;SHT31;46879;45.658;11.814;2024-03-08T05:21:51;18.02;71.27
61000;SHT31;46879;45.658;11.814;2024-03-08T05:26:51;17.99;71.36
61000;SHT31;46879;45.658;11.814;2024-03-08T05:31:52;18.02;71.40
61000;SHT31;46879;45.658;11.814;2024-03-08T05:36:53;18.05;71.50
61000;SHT31;46879;45.658;11.814;2024-03-08T05:41:55;17.99;71.60
61000;SHT31;46879;45.658;11.814;2024-03-08T05:46:56;18.02;71.65
61000;SHT31;46879;45.658;11.814;2024-03-08T05:51:57;18.05;71.66
61000;SHT31;46879;45.658;11.814;2024-03-08T05:56:58;18.02;71.67
61000;SHT31;46879;45.658;11.814;2024-03-08T06:01:58;18.02;71.67
61000;SHT31;46879;45.658;11.814;2024-03-08T06:06:59;18.02;71.67
61000;SHT31;46879;45.658;11.814;2024-03-08T06:11:59;18.01;71.64
61000;SHT31;46879;45.658;11.814;2024-03-08T06:17:02;18.02;71.61
61000;SHT31;46879;45.658;11.814;2024-03-08T06:22:02;17.99;71.65
61000;SHT31;46879;45.658;11.814;2024-03-08T06:27:05;17.99;71.73
61000;SHT31;46879;45.658;11.814;2024-03-08T06:32:06;17.99;71.72
61000;SHT31;46879;45.658;11.814;2024-03-08T06:37:07;17.99;71.75
61000;SHT31;46879;45.658;11.814;2024-03-08T06:42:07;17.99;72.24
61000;SHT31;46879;45.658;11.814;2024-03-08T06:47:09;17.95;73.09
61000;SHT31;46879;45.658;11.814;2024-03-08T06:52:10;17.98;72.62
61000;SHT31;46879;45.658;11.814;2024-03-08T06:57:11;17.97;72.53
61000;SHT31;46879;45.658;11.814;2024-03-08T07:02:11;17.97;72.26
61000;SHT31;46879;45.658;11.814;2024-03-08T07:07:12;17.98;72.26
61000;SHT31;46879;45.658;11.814;2024-03-08T07:12:12;17.99;72.30
61000;SHT31;46879;45.658;11.814;2024-03-08T07:17:13;17.99;72.01
61000;SHT31;46879;45.658;11.814;2024-03-08T07:22:14;17.98;71.83
61000;SHT31;46879;45.658;11.814;2024-03-08T07:27:15;18.01;71.69
61000;SHT31;46879;45.658;11.814;2024-03-08T07:32:15;17.99;71.56
61000;SHT31;46879;45.658;11.814;2024-03-08T07:37:22;17.98;71.42
61000;SHT31;46879;45.658;11.814;2024-03-08T07:42:23;18.01;71.23
61000;SHT31;46879;45.658;11.814;2024-03-08T07:47:24;18.01;71.13
61000;SHT31;46879;45.658;11.814;2024-03-08T07:52:26;17.99;71.00
61000;SHT31;46879;45.658;11.814;2024-03-08T07:57:27;17.99;71.00
61000;SHT31;46879;45.658;11.814;2024-03-08T08:02:27;18.01;70.95
61000;SHT31;46879;45.658;11.814;2024-03-08T08:07:28;17.99;70.87
61000;SHT31;46879;45.658;11.814;2024-03-08T08:12:28;17.99;70.83
61000;SHT31;46879;45.658;11.814;2024-03-08T08:17:29;17.98;70.76
61000;SHT31;46879;45.658;11.814;2024-03-08T08:22:30;17.97;70.67
61000;SHT31;46879;45.658;11.814;2024-03-08T08:27:30;17.98;70.57
61000;SHT31;46879;45.658;11.814;2024-03-08T08:32:32;17.97;70.46
61000;SHT31;46879;45.658;11.814;2024-03-08T08:37:34;17.98;70.37
61000;SHT31;46879;45.658;11.814;2024-03-08T08:42:37;17.98;70.32
61000;SHT31;46879;45.658;11.814;2024-03-08T08:47:38;17.97;70.25
61000;SHT31;46879;45.658;11.814;2024-03-08T08:52:39;17.97;70.17
61000;SHT31;46879;45.658;11.814;2024-03-08T08:57:43;17.97;70.14
61000;SHT31;46879;45.658;11.814;2024-03-08T09:02:44;17.94;69.87
61000;SHT31;46879;45.658;11.814;2024-03-08T09:07:45;17.97;70.02
61000;SHT31;46879;45.658;11.814;2024-03-08T09:12:46;17.94;69.89
61000;SHT31;46879;45.658;11.814;2024-03-08T09:17:47;17.95;69.89
61000;SHT31;46879;45.658;11.814;2024-03-08T09:22:48;17.92;69.84
61000;SHT31;46879;45.658;11.814;2024-03-08T09:27:49;17.94;69.80
61000;SHT31;46879;45.658;11.814;2024-03-08T09:32:50;17.94;69.81
61000;SHT31;46879;45.658;11.814;2024-03-08T09:37:51;17.91;69.78
61000;SHT31;46879;45.658;11.814;2024-03-08T09:42:52;17.91;69.64
61000;SHT31;46879;45.658;11.814;2024-03-08T09:47:52;17.92;69.61
61000;SHT31;46879;45.658;11.814;2024-03-08T09:52:55;17.92;69.62
61000;SHT31;46879;45.658;11.814;2024-03-08T09:57:58;17.89;69.62
61000;SHT31;46879;45.658;11.814;2024-03-08T10:03:19;17.91;69.55
61000;SHT31;46879;45.658;11.814;2024-03-08T10:08:20;17.89;69.47
61000;SHT31;46879;45.658;11.814;2024-03-08T10:13:21;17.91;69.44
61000;SHT31;46879;45.658;11.814;2024-03-08T10:18:21;17.88;69.47
61000;SHT31;46879;45.658;11.814;2024-03-08T10:23:23;17.89;69.43
61000;SHT31;46879;45.658;11.814;2024-03-08T10:28:24;17.89;69.45
61000;SHT31;46879;45.658;11.814;2024-03-08T10:33:25;17.88;69.32
61000;SHT31;46879;45.658;11.814;2024-03-08T10:38:26;17.88;69.33
61000;SHT31;46879;45.658;11.814;2024-03-08T10:43:37;17.89;69.24
61000;SHT31;46879;45.658;11.814;2024-03-08T10:48:45;17.91;69.16
61000;SHT31;46879;45.658;11.814;2024-03-08T10:53:47;17.87;69.16
61000;SHT31;46879;45.658;11.814;2024-03-08T10:58:49;17.85;69.11
61000;SHT31;46879;45.658;11.814;2024-03-08T11:03:50;17.87;69.06
61000;SHT31;46879;45.658;11.814;2024-03-08T11:08:51;17.87;69.09
61000;SHT31;46879;45.658;11.814;2024-03-08T11:13:55;17.89;69.15
61000;SHT31;46879;45.658;11.814;2024-03-08T11:19:01;17.85;69.10
61000;SHT31;46879;45.658;11.814;2024-03-08T11:24:14;17.85;69.00
61000;SHT31;46879;45.658;11.814;2024-03-08T11:34:32;17.85;69.02
61000;SHT31;46879;45.658;11.814;2024-03-08T11:39:36;17.84;68.92
61000;SHT31;46879;45.658;11.814;2024-03-08T11:44:37;17.85;68.96
61000;SHT31;46879;45.658;11.814;2024-03-08T11:49:38;17.82;68.96
61000;SHT31;46879;45.658;11.814;2024-03-08T11:54:53;17.82;68.93
61000;SHT31;46879;45.658;11.814;2024-03-08T11:59:58;17.81;68.94
61000;SHT31;46879;45.658;11.814;2024-03-08T12:05:07;17.82;68.99
61000;SHT31;46879;45.658;11.814;2024-03-08T12:10:20;17.82;68.87
61000;SHT31;46879;45.658;11.814;2024-03-08T12:15:25;17.81;68.77
61000;SHT31;46879;45.658;11.814;2024-03-08T12:20:28;17.81;68.95
61000;SHT31;46879;45.658;11.814;2024-03-08T12:25:33;17.81;68.84
61000;SHT31;46879;45.658;11.814;2024-03-08T12:30:51;17.79;68.84
61000;SHT31;46879;45.658;11.814;2024-03-08T12:35:55;17.79;68.72
61000;SHT31;46879;45.658;11.814;2024-03-08T12:40:58;17.77;68.82
61000;SHT31;46879;45.658;11.814;2024-03-08T12:45:59;17.79;68.73
61000;SHT31;46879;45.658;11.814;2024-03-08T12:50:59;17.77;68.57
61000;SHT31;46879;45.658;11.814;2024-03-08T12:56:02;17.75;68.54
61000;SHT31;46879;45.658;11.814;2024-03-08T13:01:04;17.75;68.67
61000;SHT31;46879;45.658;11.814;2024-03-08T13:06:08;17.75;68.69
61000;SHT31;46879;45.658;11.814;2024-03-08T13:11:09;17.74;68.69
61000;SHT31;46879;45.658;11.814;2024-03-08T13:16:14;17.74;68.80
61000;SHT31;46879;45.658;11.814;2024-03-08T13:21:19;17.74;68.85
61000;SHT31;46879;45.658;11.814;2024-03-08T13:26:24;17.73;68.91
61000;SHT31;46879;45.658;11.814;2024-03-08T13:31:26;17.74;69.06
61000;SHT31;46879;45.658;11.814;2024-03-08T13:36:26;17.75;69.06
61000;SHT31;46879;45.658;11.814;2024-03-08T13:41:35;17.73;69.09
61000;SHT31;46879;45.658;11.814;2024-03-08T13:46:36;17.74;69.03
61000;SHT31;46879;45.658;11.814;2024-03-08T13:51:40;17.74;69.04
61000;SHT31;46879;45.658;11.814;2024-03-08T13:56:41;17.71;69.10
61000;SHT31;46879;45.658;11.814;2024-03-08T14:01:44;17.74;69.14
61000;SHT31;46879;45.658;11.814;2024-03-08T14:06:45;17.73;69.11
61000;SHT31;46879;45.658;11.814;2024-03-08T14:11:45;17.74;69.05
61000;SHT31;46879;45.658;11.814;2024-03-08T14:16:47;17.74;68.96
61000;SHT31;46879;45.658;11.814;2024-03-08T14:21:48;17.73;68.95
61000;SHT31;46879;45.658;11.814;2024-03-08T14:26:49;17.73;68.89
61000;SHT31;46879;45.658;11.814;2024-03-08T14:31:49;17.74;68.84
61000;SHT31;46879;45.658;11.814;2024-03-08T14:36:50;17.73;68.83
61000;SHT31;46879;45.658;11.814;2024-03-08T14:41:51;17.74;68.85
61000;SHT31;46879;45.658;11.814;2024-03-08T14:46:56;17.74;68.82
61000;SHT31;46879;45.658;11.814;2024-03-08T14:51:57;17.73;68.76
61000;SHT31;46879;45.658;11.814;2024-03-08T14:57:01;17.73;68.90
61000;SHT31;46879;45.658;11.814;2024-03-08T15:02:03;17.74;68.96
61000;SHT31;46879;45.658;11.814;2024-03-08T15:07:07;17.74;68.75
61000;SHT31;46879;45.658;11.814;2024-03-08T15:12:10;17.73;68.78
61000;SHT31;46879;45.658;11.814;2024-03-08T15:17:10;17.71;68.69
61000;SHT31;46879;45.658;11.814;2024-03-08T15:22:21;17.71;68.67
61000;SHT31;46879;45.658;11.814;2024-03-08T15:27:21;17.74;68.69
61000;SHT31;46879;45.658;11.814;2024-03-08T15:32:23;17.73;68.80
61000;SHT31;46879;45.658;11.814;2024-03-08T15:37:23;17.73;68.84
61000;SHT31;46879;45.658;11.814;2024-03-08T15:42:26;17.74;68.80
61000;SHT31;46879;45.658;11.814;2024-03-08T15:47:26;17.71;68.77
61000;SHT31;46879;45.658;11.814;2024-03-08T15:52:27;17.71;68.59
61000;SHT31;46879;45.658;11.814;2024-03-08T15:57:27;17.73;68.60
61000;SHT31;46879;45.658;11.814;2024-03-08T16:02:28;17.70;68.56
61000;SHT31;46879;45.658;11.814;2024-03-08T16:07:29;17.71;68.70
61000;SHT31;46879;45.658;11.814;2024-03-08T16:12:29;17.73;68.53
61000;SHT31;46879;45.658;11.814;2024-03-08T16:17:30;17.68;68.42
61000;SHT31;46879;45.658;11.814;2024-03-08T16:22:31;17.70;68.40
61000;SHT31;46879;45.658;11.814;2024-03-08T16:27:32;17.66;68.39
61000;SHT31;46879;45.658;11.814;2024-03-08T16:32:33;17.68;68.49
61000;SHT31;46879;45.658;11.814;2024-03-08T16:37:33;17.66;68.46
61000;SHT31;46879;45.658;11.814;2024-03-08T16:42:34;17.66;68.28
61000;SHT31;46879;45.658;11.814;2024-03-08T16:47:36;17.66;68.33
61000;SHT31;46879;45.658;11.814;2024-03-08T16:52:37;17.74;68.43
61000;SHT31;46879;45.658;11.814;2024-03-08T16:57:38;17.71;68.35
61000;SHT31;46879;45.658;11.814;2024-03-08T17:02:39;17.71;68.34
61000;SHT31;46879;45.658;11.814;2024-03-08T17:07:39;17.70;68.37
61000;SHT31;46879;45.658;11.814;2024-03-08T17:12:44;17.70;68.34
61000;SHT31;46879;45.658;11.814;2024-03-08T17:17:46;17.70;68.39
61000;SHT31;46879;45.658;11.814;2024-03-08T17:22:51;17.74;68.53
61000;SHT31;46879;45.658;11.814;2024-03-08T17:27:55;17.68;68.65
61000;SHT31;46879;45.658;11.814;2024-03-08T17:33:01;17.71;68.72
61000;SHT31;46879;45.658;11.814;2024-03-08T17:38:09;17.73;68.61
61000;SHT31;46879;45.658;11.814;2024-03-08T17:43:11;17.74;68.80
61000;SHT31;46879;45.658;11.814;2024-03-08T17:48:12;17.71;68.69
61000;SHT31;46879;45.658;11.814;2024-03-08T17:53:12;17.74;68.71
61000;SHT31;46879;45.658;11.814;2024-03-08T17:58:14;17.74;68.78
61000;SHT31;46879;45.658;11.814;2024-03-08T18:03:15;17.75;68.80
61000;SHT31;46879;45.658;11.814;2024-03-08T18:08:18;17.77;68.72
61000;SHT31;46879;45.658;11.814;2024-03-08T18:13:18;17.75;68.70
61000;SHT31;46879;45.658;11.814;2024-03-08T18:18:19;17.77;68.78
61000;SHT31;46879;45.658;11.814;2024-03-08T18:23:21;17.77;68.78
61000;SHT31;46879;45.658;11.814;2024-03-08T18:28:21;17.78;68.78
61000;SHT31;46879;45.658;11.814;2024-03-08T18:33:22;17.77;68.73
61000;SHT31;46879;45.658;11.814;2024-03-08T18:38:22;17.78;68.77
61000;SHT31;46879;45.658;11.814;2024-03-08T18:43:23;17.77;68.68
61000;SHT31;46879;45.658;11.814;2024-03-08T18:48:26;17.78;68.63
61000;SHT31;46879;45.658;11.814;2024-03-08T18:53:27;17.82;68.50
61000;SHT31;46879;45.658;11.814;2024-03-08T18:58:29;17.81;68.56
61000;SHT31;46879;45.658;11.814;2024-03-08T19:03:31;17.79;68.56
61000;SHT31;46879;45.658;11.814;2024-03-08T19:08:34;17.79;68.46
61000;SHT31;46879;45.658;11.814;2024-03-08T19:13:37;17.78;68.37
61000;SHT31;46879;45.658;11.814;2024-03-08T19:18:37;17.81;68.31
61000;SHT31;46879;45.658;11.814;2024-03-08T19:23:38;17.79;68.48
61000;SHT31;46879;45.658;11.814;2024-03-08T19:28:38;17.81;68.58
61000;SHT31;46879;45.658;11.814;2024-03-08T19:33:42;17.79;68.42
61000;SHT31;46879;45.658;11.814;2024-03-08T19:38:42;17.82;68.51
61000;SHT31;46879;45.658;11.814;2024-03-08T19:43:43;17.78;68.59
61000;SHT31;46879;45.658;11.814;2024-03-08T19:48:45;17.81;68.61
61000;SHT31;46879;45.658;11.814;2024-03-08T19:53:46;17.81;68.57
61000;SHT31;46879;45.658;11.814;2024-03-08T19:58:49;17.81;68.51
61000;SHT31;46879;45.658;11.814;2024-03-08T20:03:50;17.81;68.57
61000;SHT31;46879;45.658;11.814;2024-03-08T20:08:51;17.81;68.54
61000;SHT31;46879;45.658;11.814;2024-03-08T20:13:52;17.84;68.50
61000;SHT31;46879;45.658;11.814;2024-03-08T20:18:52;17.84;68.49
61000;SHT31;46879;45.658;11.814;2024-03-08T20:23:53;17.82;68.56
61000;SHT31;46879;45.658;11.814;2024-03-08T20:28:54;17.85;68.51
61000;SHT31;46879;45.658;11.814;2024-03-08T20:33:57;17.82;68.53
61000;SHT31;46879;45.658;11.814;2024-03-08T20:38:57;17.81;68.59
61000;SHT31;46879;45.658;11.814;2024-03-08T20:43:58;17.84;68.49
61000;SHT31;46879;45.658;11.814;2024-03-08T20:48:58;17.84;68.48
61000;SHT31;46879;45.658;11.814;2024-03-08T20:54:01;17.85;68.46
61000;SHT31;46879;45.658;11.814;2024-03-08T20:59:05;17.82;68.50
61000;SHT31;46879;45.658;11.814;2024-03-08T21:04:06;17.82;68.51
61000;SHT31;46879;45.658;11.814;2024-03-08T21:09:07;17.82;68.41
61000;SHT31;46879;45.658;11.814;2024-03-08T21:14:11;17.85;68.40
61000;SHT31;46879;45.658;11.814;2024-03-08T21:19:12;17.81;68.41
61000;SHT31;46879;45.658;11.814;2024-03-08T21:24:13;17.85;68.35
61000;SHT31;46879;45.658;11.814;2024-03-08T21:29:14;17.85;68.31
61000;SHT31;46879;45.658;11.814;2024-03-08T21:34:16;17.82;68.41
61000;SHT31;46879;45.658;11.814;2024-03-08T21:39:16;17.82;68.36
61000;SHT31;46879;45.658;11.814;2024-03-08T21:44:17;17.84;68.31
61000;SHT31;46879;45.658;11.814;2024-03-08T21:49:17;17.85;68.31
61000;SHT31;46879;45.658;11.814;2024-03-08T21:54:18;17.81;68.34
61000;SHT31;46879;45.658;11.814;2024-03-08T21:59:19;17.79;68.32
61000;SHT31;46879;45.658;11.814;2024-03-08T22:04:20;17.82;68.39
61000;SHT31;46879;45.658;11.814;2024-03-08T22:09:21;17.82;68.27
61000;SHT31;46879;45.658;11.814;2024-03-08T22:14:22;17.78;68.31
61000;SHT31;46879;45.658;11.814;2024-03-08T22:19:23;17.82;68.56
61000;SHT31;46879;45.658;11.814;2024-03-08T22:24:25;17.81;68.66
61000;SHT31;46879;45.658;11.814;2024-03-08T22:29:26;17.82;68.89
61000;SHT31;46879;45.658;11.814;2024-03-08T22:34:27;17.82;69.00
61000;SHT31;46879;45.658;11.814;2024-03-08T22:39:27;17.78;69.09
61000;SHT31;46879;45.658;11.814;2024-03-08T22:44:29;17.81;69.14
61000;SHT31;46879;45.658;11.814;2024-03-08T22:49:33;17.81;69.24
61000;SHT31;46879;45.658;11.814;2024-03-08T22:54:34;17.82;69.31
61000;SHT31;46879;45.658;11.814;2024-03-08T22:59:35;17.78;69.36
61000;SHT31;46879;45.658;11.814;2024-03-08T23:04:35;17.81;69.35
61000;SHT31;46879;45.658;11.814;2024-03-08T23:09:37;17.79;69.33
61000;SHT31;46879;45.658;11.814;2024-03-08T23:14:38;17.78;69.43
61000;SHT31;46879;45.658;11.814;2024-03-08T23:19:38;17.79;69.40
61000;SHT31;46879;45.658;11.814;2024-03-08T23:24:41;17.81;69.40
61000;SHT31;46879;45.658;11.814;2024-03-08T23:29:43;17.78;69.42
61000;SHT31;46879;45.658;11.814;2024-03-08T23:34:44;17.79;69.41
61000;SHT31;46879;45.658;11.814;2024-03-08T23:39:45;17.79;69.43
61000;SHT31;46879;45.658;11.814;2024-03-08T23:44:45;17.79;69.46
61000;SHT31;46879;45.658;11.814;2024-03-08T23:49:46;17.79;69.48
61000;SHT31;46879;45.658;11.814;2024-03-08T23:54:48;17.79;69.51
61000;SHT31;46879;45.658;11.814;2024-03-08T23:59:48;17.78;69.46
